Time;durP1;ratioP1;P1;durP2;ratioP2;P2;SDS_P1;SDS_P2;PMS_P1;PMS_P2;Temp;Humidity;BMP_temperature;BMP_pressure;BME280_temperature;BME280_humidity;BME280_pressure;Samples;Min_cycle;Max_cycle;Signal;HPM_P1;HPM_P2
2022/11/13 00:00:32;;;;;;;30.23;19.30;;;10.00;99.90;;;;;;5065902;28;20223;-75
2022/11/13 00:02:58;;;;;;;27.47;18.43;;;10.00;99.90;;;;;;5051365;28;20183;-76
2022/11/13 00:05:24;;;;;;;30.00;18.43;;;10.10;99.90;;;;;;5055549;28;20207;-76
2022/11/13 00:07:49;;;;;;;26.17;18.60;;;10.10;99.90;;;;;;5062727;28;20257;-75
2022/11/13 00:10:15;;;;;;;30.80;20.00;;;10.10;99.90;;;;;;5070444;28;20210;-76
2022/11/13 00:12:41;;;;;;;24.87;17.03;;;10.10;99.90;;;;;;5067199;28;20636;-75
2022/11/13 00:15:07;;;;;;;26.07;17.33;;;10.20;99.90;;;;;;5068189;28;20226;-77
2022/11/13 00:17:32;;;;;;;24.67;16.77;;;10.10;99.90;;;;;;5070531;28;20233;-76
2022/11/13 00:19:58;;;;;;;24.07;17.60;;;10.20;99.90;;;;;;5064346;28;20215;-76
2022/11/13 00:22:24;;;;;;;26.43;17.40;;;10.20;99.90;;;;;;5068943;28;20203;-76
2022/11/13 00:24:49;;;;;;;28.67;18.27;;;10.20;99.90;;;;;;5050303;28;20207;-76
2022/11/13 00:27:15;;;;;;;28.20;18.50;;;10.20;99.90;;;;;;5066133;28;20207;-76
2022/11/13 00:29:40;;;;;;;25.67;16.97;;;10.30;99.90;;;;;;5050913;28;20210;-77
2022/11/13 00:32:06;;;;;;;27.47;18.30;;;10.20;99.90;;;;;;5067378;28;20207;-77
2022/11/13 00:34:32;;;;;;;28.43;18.00;;;10.20;99.90;;;;;;5047183;28;20211;-76
2022/11/13 00:36:58;;;;;;;26.00;18.20;;;10.20;99.90;;;;;;5069776;28;20203;-76
2022/11/13 00:39:23;;;;;;;26.27;17.60;;;10.20;99.90;;;;;;5066183;28;20191;-77
2022/11/13 00:41:49;;;;;;;26.40;18.67;;;10.20;99.90;;;;;;5063418;28;20187;-76
2022/11/13 00:44:14;;;;;;;27.97;18.83;;;10.30;99.90;;;;;;5071407;28;20214;-76
2022/11/13 00:46:40;;;;;;;27.53;17.83;;;10.20;99.90;;;;;;5049148;28;20286;-76
2022/11/13 00:49:05;;;;;;;32.77;18.57;;;10.20;99.90;;;;;;5054744;28;20586;-76
2022/11/13 00:51:31;;;;;;;27.97;19.03;;;10.20;99.90;;;;;;5068093;28;20214;-76
2022/11/13 00:53:57;;;;;;;28.60;18.00;;;10.20;99.90;;;;;;5063899;28;20184;-76
2022/11/13 00:56:23;;;;;;;25.13;18.43;;;10.30;99.90;;;;;;5055132;28;20207;-77
2022/11/13 00:58:48;;;;;;;24.73;18.80;;;10.30;99.90;;;;;;5067828;28;20221;-77
2022/11/13 01:01:17;;;;;;;24.37;17.00;;;10.30;99.90;;;;;;5065388;28;20720;-76
2022/11/13 01:03:43;;;;;;;22.63;17.80;;;10.30;99.90;;;;;;5050642;28;20207;-77
2022/11/13 01:06:12;;;;;;;24.27;16.50;;;10.30;99.90;;;;;;5053706;28;20175;-77
2022/11/13 01:08:38;;;;;;;26.17;17.97;;;10.30;99.90;;;;;;5062920;28;20217;-78
2022/11/13 01:11:18;;;;;;;26.13;17.67;;;10.40;99.90;;;;;;5068105;28;20207;-77
2022/11/13 01:13:46;;;;;;;25.40;18.73;;;10.40;99.90;;;;;;5067514;28;20210;-77
2022/11/13 01:16:13;;;;;;;27.77;16.47;;;10.40;99.90;;;;;;5068342;28;20199;-77
2022/11/13 01:18:41;;;;;;;22.33;16.77;;;10.40;99.90;;;;;;5069342;28;20310;-78
2022/11/13 01:21:11;;;;;;;26.23;17.13;;;10.50;99.90;;;;;;5065706;28;20202;-78
2022/11/13 01:23:37;;;;;;;26.37;17.13;;;10.50;99.90;;;;;;5049901;28;20257;-77
2022/11/13 01:26:24;;;;;;;23.60;16.60;;;10.50;99.90;;;;;;5068035;28;20212;-78
2022/11/13 01:28:50;;;;;;;23.60;16.13;;;10.40;99.90;;;;;;5050276;28;20219;-78
2022/11/13 01:31:19;;;;;;;29.17;17.50;;;10.40;99.90;;;;;;5069057;28;20199;-78
2022/11/13 01:33:45;;;;;;;25.50;17.27;;;10.50;99.90;;;;;;5049929;28;20295;-78
2022/11/13 01:36:13;;;;;;;23.60;17.40;;;10.50;99.90;;;;;;5073088;22;20219;-78
2022/11/13 01:38:39;;;;;;;26.03;16.63;;;10.50;99.90;;;;;;5050886;28;20244;-79
2022/11/13 01:41:07;;;;;;;24.90;17.70;;;10.50;99.90;;;;;;5046841;28;20209;-79
2022/11/13 01:43:35;;;;;;;23.53;16.77;;;10.40;99.90;;;;;;5047786;28;20214;-79
2022/11/13 01:46:19;;;;;;;23.73;16.87;;;10.50;99.90;;;;;;5049511;28;20208;-78
2022/11/13 01:48:52;;;;;;;23.33;16.37;;;10.50;99.90;;;;;;5048740;28;20587;-80
2022/11/13 01:51:42;;;;;;;23.73;16.37;;;10.50;99.90;;;;;;5053460;28;20168;-79
2022/11/13 01:54:16;;;;;;;23.03;17.13;;;10.50;99.90;;;;;;5052420;28;20184;-79
2022/11/13 01:56:42;;;;;;;24.33;15.47;;;10.60;99.90;;;;;;5048575;28;20195;-80
2022/11/13 01:59:24;;;;;;;25.70;16.57;;;10.50;99.90;;;;;;5054316;28;20216;-79
2022/11/13 02:01:50;;;;;;;22.33;14.50;;;10.50;99.90;;;;;;5045165;28;20239;-80
2022/11/13 02:04:16;;;;;;;21.10;14.73;;;10.50;99.90;;;;;;5048601;28;20196;-79
2022/11/13 02:06:44;;;;;;;23.50;15.07;;;10.50;99.90;;;;;;5051601;28;20229;-79
2022/11/13 02:09:10;;;;;;;21.97;15.40;;;10.50;99.90;;;;;;5052101;28;20182;-78
2022/11/13 02:11:37;;;;;;;22.17;15.83;;;10.60;99.90;;;;;;5052351;28;20182;-79
2022/11/13 02:14:04;;;;;;;21.40;14.90;;;10.60;99.90;;;;;;5049611;28;20212;-78
2022/11/13 02:16:32;;;;;;;20.13;13.50;;;10.50;99.90;;;;;;5053178;28;20225;-79
2022/11/13 02:18:58;;;;;;;21.33;14.77;;;10.50;99.90;;;;;;5053050;28;20211;-79
2022/11/13 02:21:27;;;;;;;21.97;14.93;;;10.50;99.90;;;;;;5047659;28;20180;-77
2022/11/13 02:24:13;;;;;;;21.77;14.77;;;10.60;99.90;;;;;;5045191;28;20183;-78
2022/11/13 02:26:40;;;;;;;22.83;14.37;;;10.60;99.90;;;;;;5049931;28;20274;-79
2022/11/13 02:29:05;;;;;;;20.27;14.00;;;10.60;99.90;;;;;;5050866;28;20295;-79
2022/11/13 02:31:31;;;;;;;20.33;14.40;;;10.60;99.90;;;;;;5049419;28;20693;-80
2022/11/13 02:33:56;;;;;;;18.63;13.40;;;10.60;99.90;;;;;;5052287;28;20207;-79
2022/11/13 02:36:24;;;;;;;18.67;13.70;;;10.60;99.90;;;;;;5052095;28;20219;-79
2022/11/13 02:38:51;;;;;;;18.07;13.37;;;10.60;99.90;;;;;;5054106;28;20199;-79
2022/11/13 02:41:17;;;;;;;19.53;14.07;;;10.60;99.90;;;;;;5047519;28;20234;-79
2022/11/13 02:43:42;;;;;;;21.70;14.07;;;10.60;99.90;;;;;;5053356;28;20619;-78
2022/11/13 02:46:08;;;;;;;23.80;15.00;;;10.60;99.90;;;;;;5053203;28;20338;-79
2022/11/13 02:48:34;;;;;;;22.47;14.90;;;10.60;99.90;;;;;;5052079;28;20208;-79
2022/11/13 02:50:59;;;;;;;20.03;13.50;;;10.60;99.90;;;;;;5049780;28;20660;-79
2022/11/13 02:53:25;;;;;;;18.03;13.07;;;10.60;99.90;;;;;;5051760;28;20211;-78
2022/11/13 02:55:51;;;;;;;18.53;13.10;;;10.60;99.90;;;;;;5053846;28;20203;-78
2022/11/13 02:58:16;;;;;;;19.03;13.23;;;10.50;99.90;;;;;;5050248;28;20199;-78
2022/11/13 03:00:42;;;;;;;18.87;13.30;;;10.50;99.90;;;;;;5051043;28;20223;-79
2022/11/13 03:03:08;;;;;;;20.13;13.50;;;10.50;99.90;;;;;;5049410;28;20686;-78
2022/11/13 03:05:33;;;;;;;20.77;13.07;;;10.50;99.90;;;;;;5052184;28;20231;-79
2022/11/13 03:07:59;;;;;;;18.73;13.67;;;10.60;99.90;;;;;;5048033;28;20219;-79
2022/11/13 03:10:24;;;;;;;19.40;13.37;;;10.50;99.90;;;;;;5050779;28;20238;-79
2022/11/13 03:12:50;;;;;;;22.37;14.47;;;10.50;99.90;;;;;;5050655;28;20270;-78
2022/11/13 03:15:16;;;;;;;18.63;12.43;;;10.50;99.90;;;;;;5046549;28;20203;-79
2022/11/13 03:17:41;;;;;;;21.57;13.83;;;10.50;99.90;;;;;;5044142;28;20184;-79
2022/11/13 03:20:07;;;;;;;20.17;13.27;;;10.50;99.90;;;;;;5047829;28;20310;-78
2022/11/13 03:22:33;;;;;;;22.83;13.83;;;10.50;99.90;;;;;;5046978;28;20207;-79
2022/11/13 03:24:59;;;;;;;21.67;13.73;;;10.50;99.90;;;;;;5045943;28;20219;-79
2022/11/13 03:27:24;;;;;;;23.17;14.10;;;10.50;99.90;;;;;;5048920;28;20266;-79
2022/11/13 03:29:50;;;;;;;16.70;13.20;;;10.50;99.90;;;;;;5040702;28;20602;-79
2022/11/13 03:32:15;;;;;;;19.57;14.20;;;10.50;99.90;;;;;;5044695;28;20294;-78
2022/11/13 03:34:41;;;;;;;15.07;13.17;;;10.50;99.90;;;;;;5041186;28;20708;-79
2022/11/13 03:37:07;;;;;;;19.20;13.97;;;10.60;99.90;;;;;;5040942;28;20226;-79
2022/11/13 03:39:32;;;;;;;15.30;12.40;;;10.60;99.90;;;;;;5048839;28;20219;-79
2022/11/13 03:41:58;;;;;;;22.90;13.37;;;10.50;99.90;;;;;;5041385;28;20192;-80
2022/11/13 03:44:24;;;;;;;16.97;12.90;;;10.60;99.90;;;;;;5040829;28;20211;-79
2022/11/13 03:46:49;;;;;;;18.20;13.03;;;10.50;99.90;;;;;;5045893;28;20219;-79
2022/11/13 03:49:15;;;;;;;17.17;12.60;;;10.50;99.90;;;;;;5046664;28;20216;-79
2022/11/13 03:51:40;;;;;;;15.83;11.90;;;10.60;99.90;;;;;;5041875;28;20250;-79
2022/11/13 03:54:06;;;;;;;14.93;11.60;;;10.60;99.90;;;;;;5045231;28;20189;-78
2022/11/13 03:56:31;;;;;;;16.87;12.43;;;10.60;99.90;;;;;;5042356;28;20686;-79
2022/11/13 03:58:57;;;;;;;15.50;12.27;;;10.50;99.90;;;;;;5045115;28;20222;-79
2022/11/13 04:01:23;;;;;;;16.03;11.77;;;10.50;99.90;;;;;;5048067;28;20215;-79
2022/11/13 04:03:48;;;;;;;15.27;10.90;;;10.60;99.90;;;;;;5043298;28;20303;-79
2022/11/13 04:06:14;;;;;;;18.33;11.27;;;10.60;99.90;;;;;;5050647;28;20666;-79
2022/11/13 04:08:39;;;;;;;18.97;11.67;;;10.60;99.90;;;;;;5052221;28;20180;-79
2022/11/13 04:11:10;;;;;;;12.97;10.70;;;10.60;99.90;;;;;;5049198;28;20204;-78
2022/11/13 04:13:36;;;;;;;15.53;12.03;;;10.50;99.90;;;;;;5051152;28;20302;-78
2022/11/13 04:16:02;;;;;;;17.87;11.57;;;10.50;99.90;;;;;;5055015;28;20239;-78
2022/11/13 04:18:28;;;;;;;16.50;11.00;;;10.50;99.90;;;;;;5046884;28;20230;-79
2022/11/13 04:20:59;;;;;;;16.67;12.37;;;10.50;99.90;;;;;;5052431;28;20208;-76
2022/11/13 04:23:24;;;;;;;18.00;11.87;;;10.50;99.90;;;;;;5045708;28;20216;-78
2022/11/13 04:25:50;;;;;;;15.53;11.97;;;10.50;99.90;;;;;;5047924;28;20295;-78
2022/11/13 04:28:15;;;;;;;14.57;11.30;;;10.50;99.90;;;;;;5050937;28;20614;-78
2022/11/13 04:30:41;;;;;;;16.07;12.30;;;10.50;99.90;;;;;;5047518;28;20250;-78
2022/11/13 04:33:07;;;;;;;15.13;12.07;;;10.40;99.90;;;;;;5049583;28;20180;-78
2022/11/13 04:35:32;;;;;;;17.17;12.20;;;10.40;99.90;;;;;;5051141;28;20230;-79
2022/11/13 04:37:58;;;;;;;17.60;12.57;;;10.40;99.90;;;;;;5041447;28;20219;-79
2022/11/13 04:40:23;;;;;;;17.63;13.03;;;10.40;99.90;;;;;;5051786;28;20222;-79
2022/11/13 04:42:49;;;;;;;17.87;13.10;;;10.50;99.90;;;;;;5048078;28;20275;-79
2022/11/13 04:45:20;;;;;;;19.10;12.40;;;10.50;99.90;;;;;;5051372;28;20202;-78
2022/11/13 04:47:46;;;;;;;17.93;11.83;;;10.50;99.90;;;;;;5047318;28;20180;-76
2022/11/13 04:50:13;;;;;;;15.37;11.43;;;10.40;99.90;;;;;;5051502;28;20656;-79
2022/11/13 04:52:39;;;;;;;22.30;11.43;;;10.50;99.90;;;;;;5046509;28;20211;-79
2022/11/13 04:55:05;;;;;;;15.77;12.23;;;10.40;99.90;;;;;;5050374;28;20581;-79
2022/11/13 04:57:30;;;;;;;15.70;11.67;;;10.40;99.90;;;;;;5045172;28;20211;-78
2022/11/13 04:59:56;;;;;;;14.83;11.43;;;10.30;99.90;;;;;;5047268;28;20200;-79
2022/11/13 05:02:22;;;;;;;17.03;11.50;;;10.40;99.90;;;;;;5050751;28;20211;-79
2022/11/13 05:04:47;;;;;;;14.80;11.83;;;10.40;99.90;;;;;;5044859;28;20230;-76
2022/11/13 05:07:13;;;;;;;15.73;12.43;;;10.40;99.90;;;;;;5049500;28;20203;-78
2022/11/13 05:09:39;;;;;;;17.50;12.27;;;10.40;99.90;;;;;;5047094;28;20282;-77
2022/11/13 05:12:06;;;;;;;15.87;12.17;;;10.30;99.90;;;;;;5044918;28;20183;-76
2022/11/13 05:14:34;;;;;;;17.60;11.27;;;10.30;99.90;;;;;;5049355;28;20204;-77
2022/11/13 05:17:00;;;;;;;15.27;11.33;;;10.30;99.90;;;;;;5042651;28;20946;-77
2022/11/13 05:19:26;;;;;;;19.53;12.17;;;10.20;99.90;;;;;;5051005;28;20223;-77
2022/11/13 05:21:52;;;;;;;17.53;11.07;;;10.30;99.90;;;;;;5046671;28;20207;-78
2022/11/13 05:24:17;;;;;;;19.33;10.63;;;10.30;99.90;;;;;;5046872;28;20879;-78
2022/11/13 05:26:43;;;;;;;13.87;11.03;;;10.30;99.90;;;;;;5047040;28;20279;-78
2022/11/13 05:29:08;;;;;;;13.97;11.20;;;10.30;99.90;;;;;;5046129;28;20220;-77
2022/11/13 05:31:34;;;;;;;18.23;12.23;;;10.30;99.90;;;;;;5046930;28;20291;-78
2022/11/13 05:34:02;;;;;;;19.37;13.00;;;10.30;99.90;;;;;;5046753;28;20207;-78
2022/11/13 05:36:28;;;;;;;17.03;11.83;;;10.30;99.90;;;;;;5050057;28;20231;-78
2022/11/13 05:38:54;;;;;;;20.07;11.80;;;10.30;99.90;;;;;;5047742;28;20181;-76
2022/11/13 05:41:20;;;;;;;16.43;11.80;;;10.20;99.90;;;;;;5048679;28;20685;-78
2022/11/13 05:43:47;;;;;;;17.57;12.10;;;10.30;99.90;;;;;;5045188;28;20203;-77
2022/11/13 05:46:19;;;;;;;17.47;13.10;;;10.30;99.90;;;;;;5048954;28;20216;-77
2022/11/13 05:48:46;;;;;;;18.53;12.67;;;10.20;99.90;;;;;;5047281;28;20378;-77
2022/11/13 05:51:19;;;;;;;17.80;11.60;;;10.20;99.90;;;;;;5047261;28;20190;-76
2022/11/13 05:53:44;;;;;;;18.27;12.33;;;10.30;99.90;;;;;;5047771;28;20176;-76
2022/11/13 05:56:19;;;;;;;20.20;12.47;;;10.30;99.90;;;;;;5045865;28;20668;-76
2022/11/13 05:58:46;;;;;;;19.53;11.93;;;10.30;99.90;;;;;;5046823;28;20211;-77
2022/11/13 06:01:14;;;;;;;17.63;12.53;;;10.30;99.90;;;;;;5049060;28;20585;-77
2022/11/13 06:03:40;;;;;;;15.50;11.03;;;10.30;99.90;;;;;;5047864;28;20211;-78
2022/11/13 06:06:08;;;;;;;17.83;11.30;;;10.30;99.90;;;;;;5040546;28;20204;-78
2022/11/13 06:08:34;;;;;;;18.77;11.70;;;10.30;99.90;;;;;;5048526;28;20685;-78
2022/11/13 06:11:02;;;;;;;19.17;11.87;;;10.30;99.90;;;;;;5042421;28;20208;-78
2022/11/13 06:13:28;;;;;;;15.30;10.87;;;10.30;99.90;;;;;;5046620;28;20682;-78
2022/11/13 06:15:59;;;;;;;17.03;11.50;;;10.30;99.90;;;;;;5047904;28;20214;-77
2022/11/13 06:18:24;;;;;;;16.10;11.17;;;10.30;99.90;;;;;;5044590;28;20238;-77
2022/11/13 06:20:50;;;;;;;16.87;11.83;;;10.30;99.90;;;;;;5045480;28;20677;-78
2022/11/13 06:23:16;;;;;;;17.53;12.00;;;10.30;99.90;;;;;;5044869;28;20238;-78
2022/11/13 06:25:41;;;;;;;16.83;13.27;;;10.20;99.90;;;;;;5044183;28;20310;-78
2022/11/13 06:28:07;;;;;;;21.57;13.60;;;10.20;99.90;;;;;;5046526;28;20298;-78
2022/11/13 06:30:33;;;;;;;19.97;14.70;;;10.20;99.90;;;;;;5048746;28;20222;-78
2022/11/13 06:32:58;;;;;;;21.63;14.13;;;10.30;99.90;;;;;;5040732;28;20180;-78
2022/11/13 06:35:24;;;;;;;22.53;15.57;;;10.30;99.90;;;;;;5049150;28;20226;-78
2022/11/13 06:37:49;;;;;;;22.73;16.50;;;10.40;99.90;;;;;;5044930;28;20216;-78
2022/11/13 06:40:15;;;;;;;21.80;15.57;;;10.30;99.90;;;;;;5045460;28;20273;-77
2022/11/13 06:42:41;;;;;;;27.97;16.97;;;10.40;99.90;;;;;;5044927;28;20215;-78
2022/11/13 06:45:07;;;;;;;26.10;18.27;;;10.40;99.90;;;;;;5042962;28;20204;-78
2022/11/13 06:47:33;;;;;;;23.20;17.67;;;10.30;99.90;;;;;;5049101;28;20215;-78
2022/11/13 06:49:58;;;;;;;21.83;16.50;;;10.40;99.90;;;;;;5046201;28;20218;-78
2022/11/13 06:52:24;;;;;;;25.73;17.77;;;10.40;99.90;;;;;;5046777;28;20199;-78
2022/11/13 06:54:49;;;;;;;25.27;18.20;;;10.30;99.90;;;;;;5046709;28;20212;-78
2022/11/13 06:57:15;;;;;;;29.67;18.47;;;10.30;99.90;;;;;;5047891;28;20182;-78
2022/11/13 06:59:42;;;;;;;24.13;17.43;;;10.30;99.90;;;;;;5040842;28;20295;-78
2022/11/13 07:02:09;;;;;;;25.40;17.83;;;10.30;99.90;;;;;;5044942;28;20270;-80
2022/11/13 07:04:35;;;;;;;27.67;18.90;;;10.30;99.90;;;;;;5045772;28;20203;-78
2022/11/13 07:07:01;;;;;;;27.70;19.17;;;10.30;99.90;;;;;;5041982;28;20616;-78
2022/11/13 07:09:27;;;;;;;23.60;18.17;;;10.40;99.90;;;;;;5048633;28;21074;-79
2022/11/13 07:11:53;;;;;;;24.93;18.57;;;10.30;99.90;;;;;;5046086;28;20279;-77
2022/11/13 07:14:18;;;;;;;28.90;19.80;;;10.30;99.90;;;;;;5045660;28;20431;-78
2022/11/13 07:16:44;;;;;;;27.50;19.53;;;10.40;99.90;;;;;;5045557;28;20659;-78
2022/11/13 07:19:09;;;;;;;25.30;18.73;;;10.40;99.90;;;;;;5040836;28;20347;-77
2022/11/13 07:21:35;;;;;;;23.10;16.93;;;10.40;99.90;;;;;;5045491;28;20235;-78
2022/11/13 07:24:00;;;;;;;24.57;16.13;;;10.40;99.90;;;;;;5043172;28;20180;-77
2022/11/13 07:26:26;;;;;;;22.00;15.93;;;10.40;99.90;;;;;;5038455;28;20212;-78
2022/11/13 07:28:52;;;;;;;24.03;15.90;;;10.40;99.90;;;;;;5046937;28;20295;-79
2022/11/13 07:31:18;;;;;;;23.83;15.60;;;10.40;99.90;;;;;;5048099;28;20203;-77
2022/11/13 07:33:43;;;;;;;21.80;14.70;;;10.40;99.90;;;;;;5043002;28;20203;-77
2022/11/13 07:36:10;;;;;;;20.80;15.07;;;10.40;99.90;;;;;;5046165;28;20216;-77
2022/11/13 07:38:36;;;;;;;24.57;15.90;;;10.30;99.90;;;;;;5048230;28;20688;-78
2022/11/13 07:41:02;;;;;;;18.33;14.10;;;10.30;99.90;;;;;;5048177;28;20250;-77
2022/11/13 07:43:27;;;;;;;20.27;14.57;;;10.40;99.90;;;;;;5051930;28;20231;-78
2022/11/13 07:45:56;;;;;;;22.97;14.60;;;10.40;99.90;;;;;;5042942;28;20636;-77
2022/11/13 07:48:22;;;;;;;22.70;14.80;;;10.40;99.90;;;;;;5052596;28;20194;-78
2022/11/13 07:50:49;;;;;;;20.03;14.47;;;10.40;99.90;;;;;;5053805;22;20228;-80
2022/11/13 07:53:15;;;;;;;19.67;14.53;;;10.40;99.90;;;;;;5031627;28;20203;-77
2022/11/13 07:55:41;;;;;;;20.73;13.77;;;10.40;99.90;;;;;;5028985;28;20365;-77
2022/11/13 07:58:07;;;;;;;21.30;15.00;;;10.50;99.90;;;;;;5031248;28;20200;-78
2022/11/13 08:00:34;;;;;;;23.90;14.10;;;10.50;99.90;;;;;;5027298;28;20228;-80
2022/11/13 08:03:14;;;;;;;21.27;15.40;;;10.40;99.90;;;;;;5028626;28;20890;-77
2022/11/13 08:05:40;;;;;;;23.43;15.13;;;10.40;99.90;;;;;;5031073;28;20231;-78
2022/11/13 08:08:06;;;;;;;23.17;15.30;;;10.40;99.90;;;;;;5030744;28;20686;-78
2022/11/13 08:10:32;;;;;;;23.63;16.17;;;10.40;99.90;;;;;;5030106;28;20231;-78
2022/11/13 08:13:03;;;;;;;20.47;15.33;;;10.40;99.90;;;;;;5026554;28;20208;-78
2022/11/13 08:15:29;;;;;;;24.07;15.20;;;10.50;99.90;;;;;;5030284;28;20718;-79
2022/11/13 08:17:56;;;;;;;25.83;16.27;;;10.50;99.90;;;;;;5030355;28;20231;-78
2022/11/13 08:20:24;;;;;;;25.30;15.43;;;10.50;99.90;;;;;;5029570;28;20311;-77
2022/11/13 08:22:50;;;;;;;22.50;15.10;;;10.60;99.90;;;;;;5030762;28;20281;-79
2022/11/13 08:25:16;;;;;;;22.33;15.17;;;10.50;99.90;;;;;;5026183;28;20224;-77
2022/11/13 08:27:41;;;;;;;26.43;15.90;;;10.50;99.90;;;;;;5031755;28;20236;-78
2022/11/13 08:30:08;;;;;;;23.07;15.53;;;10.50;99.90;;;;;;5028125;28;20201;-77
2022/11/13 08:32:33;;;;;;;27.23;16.23;;;10.50;99.90;;;;;;5026935;28;20228;-78
2022/11/13 08:34:59;;;;;;;25.07;16.27;;;10.50;99.90;;;;;;5030652;28;20732;-78
2022/11/13 08:37:24;;;;;;;26.63;15.27;;;10.50;99.90;;;;;;5027196;28;20295;-77
2022/11/13 08:39:50;;;;;;;24.57;15.83;;;10.50;99.90;;;;;;5022392;28;20715;-78
2022/11/13 08:42:16;;;;;;;24.80;16.33;;;10.50;99.90;;;;;;5028120;28;20181;-77
2022/11/13 08:44:41;;;;;;;24.83;16.23;;;10.50;99.90;;;;;;5025973;28;20181;-78
2022/11/13 08:47:07;;;;;;;25.73;16.23;;;10.50;99.90;;;;;;5024440;28;20219;-78
2022/11/13 08:49:33;;;;;;;25.10;16.23;;;10.40;99.90;;;;;;5026012;28;20327;-78
2022/11/13 08:51:58;;;;;;;25.47;14.90;;;10.50;99.90;;;;;;5026861;28;20295;-78
2022/11/13 08:54:24;;;;;;;24.50;16.80;;;10.50;99.90;;;;;;5027092;28;20177;-78
2022/11/13 08:56:50;;;;;;;22.50;16.37;;;10.50;99.90;;;;;;5027485;28;20849;-77
2022/11/13 08:59:15;;;;;;;27.33;15.77;;;10.50;99.90;;;;;;5027092;28;20299;-77
2022/11/13 09:01:41;;;;;;;28.03;16.53;;;10.50;99.90;;;;;;5027726;28;20204;-78
2022/11/13 09:04:07;;;;;;;28.87;16.47;;;10.50;99.90;;;;;;5028410;28;20209;-78
2022/11/13 09:06:33;;;;;;;30.13;16.30;;;10.60;99.90;;;;;;5031007;28;20211;-79
2022/11/13 09:08:58;;;;;;;25.53;16.07;;;10.60;99.90;;;;;;5030757;28;20711;-77
2022/11/13 09:11:26;;;;;;;28.73;16.33;;;10.70;99.90;;;;;;5030687;28;20208;-78
2022/11/13 09:13:53;;;;;;;26.67;16.30;;;10.60;99.90;;;;;;5029383;28;20208;-79
2022/11/13 09:16:18;;;;;;;26.83;15.10;;;10.60;99.90;;;;;;5026110;28;20687;-78
2022/11/13 09:18:47;;;;;;;26.10;15.77;;;10.60;99.90;;;;;;5029121;28;20215;-78
2022/11/13 09:21:12;;;;;;;25.93;16.57;;;10.70;99.90;;;;;;5023312;28;20213;-75
2022/11/13 09:23:38;;;;;;;27.37;16.83;;;10.70;99.90;;;;;;5025652;28;20705;-79
2022/11/13 09:26:04;;;;;;;24.40;16.17;;;10.70;99.90;;;;;;5028434;28;20212;-78
2022/11/13 09:28:29;;;;;;;25.27;16.73;;;10.80;99.90;;;;;;5024904;28;20852;-78
2022/11/13 09:30:55;;;;;;;25.13;17.30;;;10.70;99.90;;;;;;5027787;28;20223;-78
2022/11/13 09:33:20;;;;;;;26.10;17.83;;;10.70;99.90;;;;;;5029995;28;20299;-78
2022/11/13 09:35:46;;;;;;;23.17;16.07;;;10.70;99.90;;;;;;5028881;28;20183;-77
2022/11/13 09:38:13;;;;;;;28.03;16.90;;;10.80;99.90;;;;;;5022950;28;20761;-77
2022/11/13 09:41:18;;;;;;;26.03;17.20;;;10.70;99.90;;;;;;5031705;28;20243;-78
2022/11/13 09:43:53;;;;;;;24.33;16.03;;;10.80;99.90;;;;;;5024583;28;20295;-78
2022/11/13 09:46:43;;;;;;;20.87;15.30;;;10.90;99.90;;;;;;5023949;28;20209;-77
2022/11/13 09:49:22;;;;;;;23.73;16.70;;;10.80;99.90;;;;;;5022729;28;20250;-77
2022/11/13 09:51:55;;;;;;;21.57;15.53;;;10.80;99.90;;;;;;5026581;28;20223;-78
2022/11/13 09:54:21;;;;;;;23.50;15.57;;;10.90;99.90;;;;;;5025940;28;20226;-77
2022/11/13 09:57:24;;;;;;;19.97;14.77;;;10.90;99.90;;;;;;5031054;28;20176;-77
2022/11/13 09:59:59;;;;;;;20.97;14.70;;;10.90;99.90;;;;;;5038038;28;20223;-78
2022/11/13 10:02:56;;;;;;;22.33;13.93;;;10.90;99.90;;;;;;5022135;28;20203;-78
2022/11/13 10:05:24;;;;;;;21.97;13.70;;;10.80;99.90;;;;;;5014173;28;20205;-77
2022/11/13 10:08:02;;;;;;;21.37;14.17;;;10.80;99.90;;;;;;5025507;28;20201;-78
2022/11/13 10:10:54;;;;;;;24.17;15.23;;;10.80;99.90;;;;;;5027738;28;20269;-78
2022/11/13 10:13:27;;;;;;;17.90;13.70;;;10.90;99.90;;;;;;5026705;28;20295;-78
2022/11/13 10:15:59;;;;;;;20.60;14.23;;;10.90;99.90;;;;;;5026627;28;20208;-77
2022/11/13 10:18:29;;;;;;;19.30;12.40;;;10.90;99.90;;;;;;5030028;28;20176;-78
2022/11/13 10:21:15;;;;;;;21.90;12.90;;;11.10;99.90;;;;;;5025170;28;20266;-78
2022/11/13 10:23:46;;;;;;;19.67;12.90;;;11.00;99.90;;;;;;5027683;28;20211;-78
2022/11/13 10:26:21;;;;;;;17.53;11.90;;;11.00;99.90;;;;;;5025908;28;20687;-78
2022/11/13 10:28:57;;;;;;;16.70;13.07;;;11.00;99.90;;;;;;5028120;28;20291;-79
2022/11/13 10:31:22;;;;;;;15.97;13.00;;;11.10;99.90;;;;;;5020252;28;20231;-78
2022/11/13 10:33:50;;;;;;;21.20;12.87;;;11.10;99.90;;;;;;5022208;28;20706;-78
2022/11/13 10:36:42;;;;;;;17.57;11.93;;;11.00;99.90;;;;;;5030615;28;20233;-78
2022/11/13 10:39:09;;;;;;;17.00;12.27;;;11.10;99.90;;;;;;5027182;28;20234;-80
2022/11/13 10:41:50;;;;;;;17.57;12.63;;;11.20;99.90;;;;;;5025784;28;20220;-78
2022/11/13 10:44:20;;;;;;;20.83;12.30;;;11.10;99.90;;;;;;5029294;28;20219;-77
2022/11/13 10:46:46;;;;;;;19.23;13.43;;;11.10;99.90;;;;;;5028919;28;20263;-78
2022/11/13 10:49:17;;;;;;;22.40;13.80;;;11.20;99.90;;;;;;5020436;28;20223;-78
2022/11/13 10:51:43;;;;;;;18.30;12.60;;;10.90;99.90;;;;;;5023485;28;20223;-77
2022/11/13 10:54:35;;;;;;;17.90;14.00;;;11.00;99.90;;;;;;5022743;28;20196;-78
2022/11/13 10:57:04;;;;;;;22.57;14.20;;;11.00;99.90;;;;;;5015040;28;20189;-78
2022/11/13 10:59:43;;;;;;;20.73;13.47;;;11.00;99.90;;;;;;5029520;28;20247;-78
2022/11/13 11:02:23;;;;;;;16.07;12.20;;;11.00;99.90;;;;;;5017738;28;20263;-79
2022/11/13 11:04:59;;;;;;;19.53;13.03;;;11.00;99.90;;;;;;5025247;28;20603;-78
2022/11/13 11:07:25;;;;;;;18.50;11.97;;;11.00;99.90;;;;;;5018982;28;20584;-79
2022/11/13 11:09:51;;;;;;;18.63;12.00;;;11.10;99.90;;;;;;5030844;28;20262;-79
2022/11/13 11:12:20;;;;;;;16.33;11.70;;;11.00;99.90;;;;;;5028751;28;20655;-79
2022/11/13 11:14:57;;;;;;;17.33;12.63;;;11.10;99.90;;;;;;5022963;28;20596;-78
2022/11/13 11:17:50;;;;;;;18.23;12.17;;;11.20;99.90;;;;;;5021844;28;20279;-78
2022/11/13 11:20:21;;;;;;;18.50;12.03;;;11.30;99.90;;;;;;5027389;28;20266;-79
2022/11/13 11:22:56;;;;;;;15.83;11.33;;;11.30;99.90;;;;;;5024476;28;20240;-77
2022/11/13 11:25:47;;;;;;;14.77;12.10;;;11.20;99.90;;;;;;5026136;28;20634;-78
2022/11/13 11:28:35;;;;;;;19.13;11.73;;;11.20;99.90;;;;;;5023430;28;20208;-76
2022/11/13 11:31:15;;;;;;;16.13;12.03;;;11.10;99.90;;;;;;5023121;28;20845;-78
2022/11/13 11:33:52;;;;;;;17.47;12.20;;;11.10;99.90;;;;;;5024604;28;20209;-78
2022/11/13 11:36:29;;;;;;;15.37;11.77;;;11.30;99.90;;;;;;5020795;28;20178;-78
2022/11/13 11:38:59;;;;;;;16.57;12.20;;;11.40;99.90;;;;;;5025724;28;20169;-78
2022/11/13 11:42:09;;;;;;;19.27;12.03;;;11.50;99.90;;;;;;5023962;28;20227;-78
2022/11/13 11:45:15;;;;;;;16.80;11.83;;;11.40;99.90;;;;;;5013649;28;20216;-78
2022/11/13 11:47:42;;;;;;;15.50;12.23;;;11.40;99.90;;;;;;5000225;28;20212;-78
2022/11/13 11:50:17;;;;;;;16.73;12.60;;;11.50;99.90;;;;;;5024193;28;20227;-78
2022/11/13 11:53:12;;;;;;;19.50;15.30;;;11.60;99.90;;;;;;5023641;28;20219;-78
2022/11/13 11:55:58;;;;;;;22.77;14.83;;;11.60;99.90;;;;;;5022002;28;20311;-78
2022/11/13 11:59:01;;;;;;;19.77;14.70;;;11.60;99.90;;;;;;5027212;28;20219;-78
2022/11/13 12:01:49;;;;;;;19.23;13.80;;;11.70;99.90;;;;;;5020540;28;20270;-78
2022/11/13 12:04:18;;;;;;;15.77;10.73;;;11.70;99.90;;;;;;5025582;28;20339;-77
2022/11/13 12:07:25;;;;;;;16.50;11.67;;;11.80;99.90;;;;;;5023160;28;20227;-77
2022/11/13 12:09:53;;;;;;;19.40;11.00;;;11.90;99.90;;;;;;5024040;28;20220;-78
2022/11/13 12:12:28;;;;;;;18.57;11.47;;;11.70;99.90;;;;;;5020444;28;20709;-77
2022/11/13 12:15:23;;;;;;;17.53;11.50;;;11.70;99.90;;;;;;5025120;28;20238;-76
2022/11/13 12:17:57;;;;;;;16.03;10.90;;;11.80;99.90;;;;;;4994497;28;20216;-78
2022/11/13 12:20:23;;;;;;;15.47;11.30;;;11.70;99.90;;;;;;5016631;28;20233;-77
2022/11/13 12:23:15;;;;;;;17.73;11.73;;;11.80;99.90;;;;;;5023581;28;20636;-78
2022/11/13 12:25:54;;;;;;;19.87;13.13;;;11.60;99.90;;;;;;5025113;28;20243;-78
2022/11/13 12:28:34;;;;;;;17.17;12.77;;;11.70;99.90;;;;;;5022490;28;20318;-78
2022/11/13 12:31:43;;;;;;;15.50;11.50;;;11.80;99.90;;;;;;5028980;28;20220;-78
2022/11/13 12:34:27;;;;;;;16.90;11.67;;;11.70;99.90;;;;;;4969591;28;20230;-77
2022/11/13 12:36:54;;;;;;;22.67;14.00;;;11.60;99.90;;;;;;5027858;28;20204;-76
2022/11/13 12:39:32;;;;;;;18.97;12.07;;;11.60;99.90;;;;;;5031430;28;20215;-78